sensor_id;sensor_type;location;lat;lon;timestamp;pressure;altitude;pressure_sealevel;temperature;humidity
59154;BME280;44935;48.944;9.418;2022-12-17T00:00:32;99011.95;;;-3.83;45.33
59154;BME280;44935;48.944;9.418;2022-12-17T00:02:59;99010.30;;;-4.49;46.39
59154;BME280;44935;48.944;9.418;2022-12-17T00:05:26;99015.88;;;-4.32;45.98
59154;BME280;44935;48.944;9.418;2022-12-17T00:07:57;99019.63;;;-4.17;46.08
59154;BME280;44935;48.944;9.418;2022-12-17T00:10:24;99025.25;;;-3.89;44.51
59154;BME280;44935;48.944;9.418;2022-12-17T00:12:51;99026.31;;;-4.07;44.23
59154;BME280;44935;48.944;9.418;2022-12-17T00:15:18;99024.00;;;-4.32;45.02
59154;BME280;44935;48.944;9.418;2022-12-17T00:17:45;99027.16;;;-4.62;46.00
59154;BME280;44935;48.944;9.418;2022-12-17T00:20:12;99025.59;;;-4.40;45.94
59154;BME280;44935;48.944;9.418;2022-12-17T00:22:39;99032.36;;;-4.59;45.93
59154;BME280;44935;48.944;9.418;2022-12-17T00:25:06;99035.70;;;-4.29;46.21
59154;BME280;44935;48.944;9.418;2022-12-17T00:27:34;99045.54;;;-4.77;45.74
59154;BME280;44935;48.944;9.418;2022-12-17T00:30:00;99052.04;;;-4.60;45.88
59154;BME280;44935;48.944;9.418;2022-12-17T00:32:27;99054.01;;;-4.40;45.64
59154;BME280;44935;48.944;9.418;2022-12-17T00:34:54;99055.35;;;-4.60;45.79
59154;BME280;44935;48.944;9.418;2022-12-17T00:37:21;99058.13;;;-4.96;46.53
59154;BME280;44935;48.944;9.418;2022-12-17T00:39:48;99053.44;;;-4.80;46.51
59154;BME280;44935;48.944;9.418;2022-12-17T00:42:15;99054.31;;;-4.84;45.99
59154;BME280;44935;48.944;9.418;2022-12-17T00:44:41;99058.56;;;-4.46;45.49
59154;BME280;44935;48.944;9.418;2022-12-17T00:47:08;99056.36;;;-4.80;44.91
59154;BME280;44935;48.944;9.418;2022-12-17T00:49:36;99061.76;;;-4.78;44.98
59154;BME280;44935;48.944;9.418;2022-12-17T00:52:03;99067.84;;;-4.98;45.26
59154;BME280;44935;48.944;9.418;2022-12-17T00:54:31;99071.14;;;-5.26;45.86
59154;BME280;44935;48.944;9.418;2022-12-17T00:56:58;99072.28;;;-5.12;46.05
59154;BME280;44935;48.944;9.418;2022-12-17T00:59:25;99072.37;;;-5.50;45.90
59154;BME280;44935;48.944;9.418;2022-12-17T01:01:52;99076.20;;;-5.46;45.66
59154;BME280;44935;48.944;9.418;2022-12-17T01:04:19;99076.24;;;-5.19;45.22
59154;BME280;44935;48.944;9.418;2022-12-17T01:06:46;99080.35;;;-5.08;45.37
59154;BME280;44935;48.944;9.418;2022-12-17T01:09:13;99084.98;;;-5.43;45.27
59154;BME280;44935;48.944;9.418;2022-12-17T01:11:40;99085.44;;;-5.55;46.11
59154;BME280;44935;48.944;9.418;2022-12-17T01:14:07;99089.86;;;-5.13;45.82
59154;BME280;44935;48.944;9.418;2022-12-17T01:16:34;99091.49;;;-5.44;45.72
59154;BME280;44935;48.944;9.418;2022-12-17T01:19:01;99098.81;;;-5.26;45.15
59154;BME280;44935;48.944;9.418;2022-12-17T01:21:28;99098.14;;;-5.13;45.06
59154;BME280;44935;48.944;9.418;2022-12-17T01:23:55;99093.74;;;-5.45;45.21
59154;BME280;44935;48.944;9.418;2022-12-17T01:26:22;99096.83;;;-5.23;45.29
59154;BME280;44935;48.944;9.418;2022-12-17T01:28:49;99101.56;;;-5.12;44.93
59154;BME280;44935;48.944;9.418;2022-12-17T01:31:16;99107.65;;;-4.85;44.53
59154;BME280;44935;48.944;9.418;2022-12-17T01:33:44;99108.05;;;-4.67;44.19
59154;BME280;44935;48.944;9.418;2022-12-17T01:36:12;99113.26;;;-5.06;44.59
59154;BME280;44935;48.944;9.418;2022-12-17T01:38:39;99110.79;;;-5.37;45.14
59154;BME280;44935;48.944;9.418;2022-12-17T01:41:08;99111.01;;;-5.79;44.75
59154;BME280;44935;48.944;9.418;2022-12-17T01:43:37;99112.39;;;-5.64;45.07
59154;BME280;44935;48.944;9.418;2022-12-17T01:46:04;99116.44;;;-5.80;45.46
59154;BME280;44935;48.944;9.418;2022-12-17T01:48:36;99121.92;;;-5.86;45.49
59154;BME280;44935;48.944;9.418;2022-12-17T01:51:04;99122.10;;;-6.02;46.09
59154;BME280;44935;48.944;9.418;2022-12-17T01:53:34;99126.96;;;-5.72;46.21
59154;BME280;44935;48.944;9.418;2022-12-17T01:56:02;99125.74;;;-5.44;45.83
59154;BME280;44935;48.944;9.418;2022-12-17T01:58:29;99131.09;;;-5.40;45.67
59154;BME280;44935;48.944;9.418;2022-12-17T02:00:56;99130.24;;;-5.59;45.33
59154;BME280;44935;48.944;9.418;2022-12-17T02:03:23;99128.87;;;-5.35;45.21
59154;BME280;44935;48.944;9.418;2022-12-17T02:05:56;99134.21;;;-5.93;45.58
59154;BME280;44935;48.944;9.418;2022-12-17T02:08:31;99139.23;;;-5.86;45.12
59154;BME280;44935;48.944;9.418;2022-12-17T02:11:05;99140.31;;;-5.79;45.08
59154;BME280;44935;48.944;9.418;2022-12-17T02:13:36;99140.41;;;-5.90;45.68
59154;BME280;44935;48.944;9.418;2022-12-17T02:16:13;99141.85;;;-5.61;45.29
59154;BME280;44935;48.944;9.418;2022-12-17T02:18:44;99145.06;;;-5.50;45.40
59154;BME280;44935;48.944;9.418;2022-12-17T02:21:14;99143.69;;;-5.35;45.61
59154;BME280;44935;48.944;9.418;2022-12-17T02:23:47;99149.68;;;-5.41;45.29
59154;BME280;44935;48.944;9.418;2022-12-17T02:26:31;99153.87;;;-5.56;45.31
59154;BME280;44935;48.944;9.418;2022-12-17T02:29:01;99157.45;;;-5.55;45.45
59154;BME280;44935;48.944;9.418;2022-12-17T02:31:30;99158.94;;;-5.66;46.31
59154;BME280;44935;48.944;9.418;2022-12-17T02:33:59;99159.15;;;-5.75;46.50
59154;BME280;44935;48.944;9.418;2022-12-17T02:36:26;99162.98;;;-5.61;46.79
59154;BME280;44935;48.944;9.418;2022-12-17T02:38:53;99167.87;;;-5.49;47.20
59154;BME280;44935;48.944;9.418;2022-12-17T02:41:23;99166.39;;;-5.46;47.03
59154;BME280;44935;48.944;9.418;2022-12-17T02:43:54;99165.53;;;-5.24;47.48
59154;BME280;44935;48.944;9.418;2022-12-17T02:46:22;99162.39;;;-5.38;47.55
59154;BME280;44935;48.944;9.418;2022-12-17T02:48:49;99167.11;;;-5.24;47.34
59154;BME280;44935;48.944;9.418;2022-12-17T02:51:16;99171.15;;;-5.15;47.18
59154;BME280;44935;48.944;9.418;2022-12-17T02:53:45;99173.65;;;-4.87;46.68
59154;BME280;44935;48.944;9.418;2022-12-17T02:56:16;99173.99;;;-4.84;46.56
59154;BME280;44935;48.944;9.418;2022-12-17T02:58:43;99176.17;;;-4.77;46.39
59154;BME280;44935;48.944;9.418;2022-12-17T03:01:10;99180.10;;;-4.28;45.46
59154;BME280;44935;48.944;9.418;2022-12-17T03:03:37;99188.44;;;-4.83;46.36
59154;BME280;44935;48.944;9.418;2022-12-17T03:06:04;99195.91;;;-4.98;46.76
59154;BME280;44935;48.944;9.418;2022-12-17T03:08:31;99197.70;;;-4.66;46.81
59154;BME280;44935;48.944;9.418;2022-12-17T03:10:58;99202.30;;;-4.71;46.97
59154;BME280;44935;48.944;9.418;2022-12-17T03:13:27;99204.84;;;-4.60;46.23
59154;BME280;44935;48.944;9.418;2022-12-17T03:15:54;99205.05;;;-4.74;47.11
59154;BME280;44935;48.944;9.418;2022-12-17T03:18:21;99201.00;;;-4.63;47.31
59154;BME280;44935;48.944;9.418;2022-12-17T03:20:51;99204.90;;;-4.70;47.19
59154;BME280;44935;48.944;9.418;2022-12-17T03:23:18;99203.02;;;-5.11;47.98
59154;BME280;44935;48.944;9.418;2022-12-17T03:25:46;99210.16;;;-4.63;48.21
59154;BME280;44935;48.944;9.418;2022-12-17T03:28:13;99214.79;;;-4.82;48.82
59154;BME280;44935;48.944;9.418;2022-12-17T03:30:40;99220.01;;;-4.98;48.76
59154;BME280;44935;48.944;9.418;2022-12-17T03:33:07;99224.57;;;-5.00;48.70
59154;BME280;44935;48.944;9.418;2022-12-17T03:35:34;99221.08;;;-4.89;48.73
59154;BME280;44935;48.944;9.418;2022-12-17T03:38:06;99220.59;;;-4.81;49.10
59154;BME280;44935;48.944;9.418;2022-12-17T03:40:33;99222.41;;;-4.62;48.86
59154;BME280;44935;48.944;9.418;2022-12-17T03:43:05;99221.08;;;-4.94;48.62
59154;BME280;44935;48.944;9.418;2022-12-17T03:45:32;99225.25;;;-4.96;48.67
59154;BME280;44935;48.944;9.418;2022-12-17T03:48:04;99225.72;;;-4.82;48.63
59154;BME280;44935;48.944;9.418;2022-12-17T03:50:32;99223.15;;;-4.53;48.05
59154;BME280;44935;48.944;9.418;2022-12-17T03:52:59;99224.51;;;-4.20;48.65
59154;BME280;44935;48.944;9.418;2022-12-17T03:55:26;99224.49;;;-4.46;48.22
59154;BME280;44935;48.944;9.418;2022-12-17T03:57:53;99227.74;;;-4.33;48.21
59154;BME280;44935;48.944;9.418;2022-12-17T04:00:20;99225.89;;;-4.42;48.61
59154;BME280;44935;48.944;9.418;2022-12-17T04:02:48;99227.56;;;-4.13;49.01
59154;BME280;44935;48.944;9.418;2022-12-17T04:05:15;99230.74;;;-4.52;49.11
59154;BME280;44935;48.944;9.418;2022-12-17T04:07:42;99231.11;;;-4.33;49.12
59154;BME280;44935;48.944;9.418;2022-12-17T04:10:10;99226.49;;;-4.08;48.63
59154;BME280;44935;48.944;9.418;2022-12-17T04:12:37;99231.73;;;-3.66;48.11
59154;BME280;44935;48.944;9.418;2022-12-17T04:15:05;99239.59;;;-3.25;47.57
59154;BME280;44935;48.944;9.418;2022-12-17T04:17:32;99247.83;;;-3.10;46.52
59154;BME280;44935;48.944;9.418;2022-12-17T04:19:59;99250.79;;;-3.18;47.27
59154;BME280;44935;48.944;9.418;2022-12-17T04:22:26;99251.22;;;-3.75;48.60
59154;BME280;44935;48.944;9.418;2022-12-17T04:24:53;99257.81;;;-3.82;49.80
59154;BME280;44935;48.944;9.418;2022-12-17T04:27:19;99260.08;;;-3.53;49.46
59154;BME280;44935;48.944;9.418;2022-12-17T04:29:47;99265.60;;;-3.08;48.58
59154;BME280;44935;48.944;9.418;2022-12-17T04:32:14;99262.15;;;-2.85;47.94
59154;BME280;44935;48.944;9.418;2022-12-17T04:34:41;99259.74;;;-3.32;48.07
59154;BME280;44935;48.944;9.418;2022-12-17T04:37:08;99258.61;;;-2.87;46.86
59154;BME280;44935;48.944;9.418;2022-12-17T04:39:35;99259.66;;;-3.96;48.75
59154;BME280;44935;48.944;9.418;2022-12-17T04:42:02;99262.62;;;-3.82;50.64
59154;BME280;44935;48.944;9.418;2022-12-17T04:44:29;99266.76;;;-2.82;46.91
59154;BME280;44935;48.944;9.418;2022-12-17T04:46:57;99270.40;;;-2.76;47.14
59154;BME280;44935;48.944;9.418;2022-12-17T04:49:24;99275.85;;;-2.99;47.33
59154;BME280;44935;48.944;9.418;2022-12-17T04:51:51;99275.28;;;-3.00;48.11
59154;BME280;44935;48.944;9.418;2022-12-17T04:54:18;99277.13;;;-3.42;49.12
59154;BME280;44935;48.944;9.418;2022-12-17T04:56:45;99281.61;;;-3.11;48.81
59154;BME280;44935;48.944;9.418;2022-12-17T04:59:12;99286.18;;;-3.27;48.75
59154;BME280;44935;48.944;9.418;2022-12-17T05:01:39;99291.91;;;-3.41;49.29
59154;BME280;44935;48.944;9.418;2022-12-17T05:04:06;99293.74;;;-3.65;48.88
59154;BME280;44935;48.944;9.418;2022-12-17T05:06:34;99295.96;;;-3.37;49.45
59154;BME280;44935;48.944;9.418;2022-12-17T05:09:00;99293.08;;;-3.29;49.43
59154;BME280;44935;48.944;9.418;2022-12-17T05:11:28;99294.78;;;-3.38;49.05
59154;BME280;44935;48.944;9.418;2022-12-17T05:13:54;99302.13;;;-3.44;48.97
59154;BME280;44935;48.944;9.418;2022-12-17T05:16:21;99302.29;;;-2.91;48.45
59154;BME280;44935;48.944;9.418;2022-12-17T05:18:48;99303.11;;;-2.81;47.72
59154;BME280;44935;48.944;9.418;2022-12-17T05:21:15;99307.64;;;-3.02;47.51
59154;BME280;44935;48.944;9.418;2022-12-17T05:23:43;99311.30;;;-2.77;46.98
59154;BME280;44935;48.944;9.418;2022-12-17T05:26:16;99311.83;;;-2.74;46.74
59154;BME280;44935;48.944;9.418;2022-12-17T05:28:43;99315.37;;;-2.87;47.01
59154;BME280;44935;48.944;9.418;2022-12-17T05:31:10;99317.18;;;-2.68;47.01
59154;BME280;44935;48.944;9.418;2022-12-17T05:33:37;99313.99;;;-2.69;46.84
59154;BME280;44935;48.944;9.418;2022-12-17T05:36:05;99315.65;;;-2.70;46.75
59154;BME280;44935;48.944;9.418;2022-12-17T05:38:32;99315.97;;;-2.97;47.19
59154;BME280;44935;48.944;9.418;2022-12-17T05:40:59;99318.53;;;-2.88;47.53
59154;BME280;44935;48.944;9.418;2022-12-17T05:43:27;99326.27;;;-2.29;46.42
59154;BME280;44935;48.944;9.418;2022-12-17T05:45:53;99330.68;;;-2.01;45.51
59154;BME280;44935;48.944;9.418;2022-12-17T05:48:20;99332.77;;;-1.82;44.20
59154;BME280;44935;48.944;9.418;2022-12-17T05:50:49;99336.28;;;-2.08;44.81
59154;BME280;44935;48.944;9.418;2022-12-17T05:53:16;99340.21;;;-2.18;45.41
59154;BME280;44935;48.944;9.418;2022-12-17T05:55:47;99339.72;;;-2.52;45.72
59154;BME280;44935;48.944;9.418;2022-12-17T05:58:15;99337.56;;;-2.67;45.86
59154;BME280;44935;48.944;9.418;2022-12-17T06:00:42;99340.21;;;-2.46;45.93
59154;BME280;44935;48.944;9.418;2022-12-17T06:03:08;99343.88;;;-2.48;45.81
59154;BME280;44935;48.944;9.418;2022-12-17T06:05:36;99345.76;;;-2.93;46.42
59154;BME280;44935;48.944;9.418;2022-12-17T06:08:03;99350.16;;;-3.34;47.47
59154;BME280;44935;48.944;9.418;2022-12-17T06:10:31;99352.47;;;-3.22;46.99
59154;BME280;44935;48.944;9.418;2022-12-17T06:12:58;99352.86;;;-3.31;47.94
59154;BME280;44935;48.944;9.418;2022-12-17T06:15:25;99360.92;;;-3.56;47.78
59154;BME280;44935;48.944;9.418;2022-12-17T06:17:53;99365.34;;;-3.61;48.21
59154;BME280;44935;48.944;9.418;2022-12-17T06:20:20;99370.86;;;-3.19;48.21
59154;BME280;44935;48.944;9.418;2022-12-17T06:22:47;99369.14;;;-2.97;46.64
59154;BME280;44935;48.944;9.418;2022-12-17T06:25:24;99369.76;;;-3.04;46.84
59154;BME280;44935;48.944;9.418;2022-12-17T06:27:57;99374.22;;;-2.90;46.34
59154;BME280;44935;48.944;9.418;2022-12-17T06:30:24;99374.23;;;-2.99;46.76
59154;BME280;44935;48.944;9.418;2022-12-17T06:32:51;99378.38;;;-2.82;46.79
59154;BME280;44935;48.944;9.418;2022-12-17T06:35:18;99378.99;;;-2.71;46.71
59154;BME280;44935;48.944;9.418;2022-12-17T06:37:45;99382.17;;;-2.95;46.83
59154;BME280;44935;48.944;9.418;2022-12-17T06:40:12;99384.29;;;-2.87;46.97
59154;BME280;44935;48.944;9.418;2022-12-17T06:42:39;99386.66;;;-2.71;45.69
59154;BME280;44935;48.944;9.418;2022-12-17T06:45:07;99387.65;;;-1.89;44.68
59154;BME280;44935;48.944;9.418;2022-12-17T06:47:35;99389.71;;;-2.56;44.32
59154;BME280;44935;48.944;9.418;2022-12-17T06:50:03;99397.61;;;-2.77;44.85
59154;BME280;44935;48.944;9.418;2022-12-17T06:52:30;99402.33;;;-2.66;44.18
59154;BME280;44935;48.944;9.418;2022-12-17T06:54:56;99405.14;;;-3.05;45.53
59154;BME280;44935;48.944;9.418;2022-12-17T06:57:23;99405.04;;;-3.31;46.13
59154;BME280;44935;48.944;9.418;2022-12-17T06:59:50;99405.66;;;-3.49;46.57
59154;BME280;44935;48.944;9.418;2022-12-17T07:02:17;99406.16;;;-3.41;46.60
59154;BME280;44935;48.944;9.418;2022-12-17T07:04:44;99408.89;;;-3.18;46.37
59154;BME280;44935;48.944;9.418;2022-12-17T07:07:12;99415.41;;;-3.72;46.45
59154;BME280;44935;48.944;9.418;2022-12-17T07:09:39;99415.89;;;-4.49;48.96
59154;BME280;44935;48.944;9.418;2022-12-17T07:12:06;99419.69;;;-4.29;48.93
59154;BME280;44935;48.944;9.418;2022-12-17T07:14:32;99423.49;;;-3.13;45.64
59154;BME280;44935;48.944;9.418;2022-12-17T07:17:00;99426.95;;;-3.57;46.45
59154;BME280;44935;48.944;9.418;2022-12-17T07:19:27;99430.68;;;-3.22;44.84
59154;BME280;44935;48.944;9.418;2022-12-17T07:21:55;99430.27;;;-4.68;47.84
59154;BME280;44935;48.944;9.418;2022-12-17T07:24:22;99432.32;;;-3.15;44.26
59154;BME280;44935;48.944;9.418;2022-12-17T07:26:49;99433.95;;;-2.37;42.79
59154;BME280;44935;48.944;9.418;2022-12-17T07:29:16;99434.89;;;-3.18;44.92
59154;BME280;44935;48.944;9.418;2022-12-17T07:31:43;99443.71;;;-3.38;45.06
59154;BME280;44935;48.944;9.418;2022-12-17T07:34:10;99448.55;;;-3.18;45.04
59154;BME280;44935;48.944;9.418;2022-12-17T07:36:37;99448.94;;;-3.03;44.23
59154;BME280;44935;48.944;9.418;2022-12-17T07:39:04;99456.94;;;-2.90;44.94
59154;BME280;44935;48.944;9.418;2022-12-17T07:41:31;99465.08;;;-3.52;46.20
59154;BME280;44935;48.944;9.418;2022-12-17T07:43:58;99468.82;;;-3.99;46.62
59154;BME280;44935;48.944;9.418;2022-12-17T07:46:25;99470.19;;;-3.71;46.87
59154;BME280;44935;48.944;9.418;2022-12-17T07:48:52;99472.06;;;-3.81;47.13
59154;BME280;44935;48.944;9.418;2022-12-17T07:51:19;99470.98;;;-3.99;47.40
59154;BME280;44935;48.944;9.418;2022-12-17T07:53:47;99476.30;;;-4.34;47.45
59154;BME280;44935;48.944;9.418;2022-12-17T07:56:14;99482.30;;;-3.92;47.62
59154;BME280;44935;48.944;9.418;2022-12-17T07:58:41;99491.64;;;-3.96;47.46
59154;BME280;44935;48.944;9.418;2022-12-17T08:01:08;99495.20;;;-4.01;47.74
59154;BME280;44935;48.944;9.418;2022-12-17T08:03:34;99493.08;;;-3.58;46.87
59154;BME280;44935;48.944;9.418;2022-12-17T08:06:01;99496.52;;;-4.39;47.67
59154;BME280;44935;48.944;9.418;2022-12-17T08:08:28;99502.81;;;-4.14;48.22
59154;BME280;44935;48.944;9.418;2022-12-17T08:10:55;99502.18;;;-3.85;48.04
59154;BME280;44935;48.944;9.418;2022-12-17T08:13:23;99506.07;;;-3.63;47.90
59154;BME280;44935;48.944;9.418;2022-12-17T08:15:52;99508.50;;;-3.09;46.97
59154;BME280;44935;48.944;9.418;2022-12-17T08:18:18;99511.12;;;-2.64;45.93
59154;BME280;44935;48.944;9.418;2022-12-17T08:20:45;99513.81;;;-3.02;46.24
59154;BME280;44935;48.944;9.418;2022-12-17T08:23:12;99521.37;;;-3.51;46.64
59154;BME280;44935;48.944;9.418;2022-12-17T08:25:40;99527.73;;;-3.47;46.20
59154;BME280;44935;48.944;9.418;2022-12-17T08:28:07;99527.14;;;-3.61;46.84
59154;BME280;44935;48.944;9.418;2022-12-17T08:30:34;99532.41;;;-2.95;45.52
59154;BME280;44935;48.944;9.418;2022-12-17T08:33:02;99529.55;;;-3.17;45.82
59154;BME280;44935;48.944;9.418;2022-12-17T08:35:30;99530.78;;;-2.91;46.50
59154;BME280;44935;48.944;9.418;2022-12-17T08:38:00;99532.90;;;-3.04;46.47
59154;BME280;44935;48.944;9.418;2022-12-17T08:40:28;99539.16;;;-3.23;46.33
59154;BME280;44935;48.944;9.418;2022-12-17T08:42:56;99541.53;;;-3.04;46.26
59154;BME280;44935;48.944;9.418;2022-12-17T08:45:23;99538.06;;;-3.08;46.09
59154;BME280;44935;48.944;9.418;2022-12-17T08:47:50;99539.72;;;-2.88;46.15
59154;BME280;44935;48.944;9.418;2022-12-17T08:50:17;99543.58;;;-2.77;46.17
59154;BME280;44935;48.944;9.418;2022-12-17T08:52:45;99548.21;;;-2.76;45.71
59154;BME280;44935;48.944;9.418;2022-12-17T08:55:12;99548.00;;;-3.56;46.68
59154;BME280;44935;48.944;9.418;2022-12-17T08:57:39;99549.30;;;-3.34;46.75
59154;BME280;44935;48.944;9.418;2022-12-17T09:00:08;99552.63;;;-3.69;46.97
59154;BME280;44935;48.944;9.418;2022-12-17T09:02:37;99557.19;;;-3.73;47.37
59154;BME280;44935;48.944;9.418;2022-12-17T09:05:05;99563.93;;;-3.70;47.16
59154;BME280;44935;48.944;9.418;2022-12-17T09:07:32;99566.21;;;-3.49;47.13
59154;BME280;44935;48.944;9.418;2022-12-17T09:09:59;99570.51;;;-3.84;47.57
59154;BME280;44935;48.944;9.418;2022-12-17T09:12:26;99575.70;;;-3.75;47.37
59154;BME280;44935;48.944;9.418;2022-12-17T09:14:53;99577.07;;;-3.90;47.05
59154;BME280;44935;48.944;9.418;2022-12-17T09:17:20;99585.12;;;-3.99;48.45
59154;BME280;44935;48.944;9.418;2022-12-17T09:19:47;99585.60;;;-4.19;48.40
59154;BME280;44935;48.944;9.418;2022-12-17T09:22:14;99588.88;;;-4.24;48.53
59154;BME280;44935;48.944;9.418;2022-12-17T09:24:41;99592.59;;;-4.31;48.70
59154;BME280;44935;48.944;9.418;2022-12-17T09:27:13;99594.99;;;-3.71;47.69
59154;BME280;44935;48.944;9.418;2022-12-17T09:29:40;99593.05;;;-3.47;46.37
59154;BME280;44935;48.944;9.418;2022-12-17T09:32:07;99594.18;;;-3.21;46.33
59154;BME280;44935;48.944;9.418;2022-12-17T09:34:35;99590.16;;;-3.29;47.04
59154;BME280;44935;48.944;9.418;2022-12-17T09:37:02;99588.32;;;-2.90;45.41
59154;BME280;44935;48.944;9.418;2022-12-17T09:39:29;99590.96;;;-3.45;46.51
59154;BME280;44935;48.944;9.418;2022-12-17T09:42:04;99590.31;;;-3.39;46.26
59154;BME280;44935;48.944;9.418;2022-12-17T09:44:42;99593.33;;;-3.29;46.64
59154;BME280;44935;48.944;9.418;2022-12-17T09:47:16;99596.39;;;-3.24;46.28
59154;BME280;44935;48.944;9.418;2022-12-17T09:49:47;99599.86;;;-3.55;46.75
59154;BME280;44935;48.944;9.418;2022-12-17T09:52:19;99593.91;;;-3.29;46.74
59154;BME280;44935;48.944;9.418;2022-12-17T09:54:50;99594.96;;;-2.91;45.87
59154;BME280;44935;48.944;9.418;2022-12-17T09:57:21;99596.30;;;-3.09;46.14
59154;BME280;44935;48.944;9.418;2022-12-17T09:59:50;99596.94;;;-2.74;44.68
59154;BME280;44935;48.944;9.418;2022-12-17T10:02:19;99593.01;;;-3.21;45.73
59154;BME280;44935;48.944;9.418;2022-12-17T10:04:48;99595.03;;;-3.23;45.60
59154;BME280;44935;48.944;9.418;2022-12-17T10:07:20;99588.59;;;-3.45;46.09
59154;BME280;44935;48.944;9.418;2022-12-17T10:09:50;99584.59;;;-3.31;46.52
59154;BME280;44935;48.944;9.418;2022-12-17T10:12:19;99588.32;;;-2.87;46.24
59154;BME280;44935;48.944;9.418;2022-12-17T10:14:47;99581.42;;;-2.66;46.30
59154;BME280;44935;48.944;9.418;2022-12-17T10:17:16;99580.23;;;-2.99;45.65
59154;BME280;44935;48.944;9.418;2022-12-17T10:19:44;99577.81;;;-2.88;45.71
59154;BME280;44935;48.944;9.418;2022-12-17T10:22:17;99574.61;;;-3.37;46.64
59154;BME280;44935;48.944;9.418;2022-12-17T10:24:45;99573.23;;;-2.73;45.32
59154;BME280;44935;48.944;9.418;2022-12-17T10:27:17;99578.65;;;-2.89;46.29
59154;BME280;44935;48.944;9.418;2022-12-17T10:29:44;99579.83;;;-3.27;46.78
59154;BME280;44935;48.944;9.418;2022-12-17T10:32:19;99588.56;;;-3.69;48.14
59154;BME280;44935;48.944;9.418;2022-12-17T10:34:47;99588.00;;;-3.43;47.96
59154;BME280;44935;48.944;9.418;2022-12-17T10:37:18;99585.95;;;-3.50;47.17
59154;BME280;44935;48.944;9.418;2022-12-17T10:39:54;99582.30;;;-3.20;46.89
59154;BME280;44935;48.944;9.418;2022-12-17T10:42:24;99583.79;;;-3.36;47.05
59154;BME280;44935;48.944;9.418;2022-12-17T10:44:52;99589.45;;;-2.24;44.87
59154;BME280;44935;48.944;9.418;2022-12-17T10:47:21;99593.91;;;-1.99;43.99
59154;BME280;44935;48.944;9.418;2022-12-17T10:49:56;99598.76;;;-2.17;44.59
59154;BME280;44935;48.944;9.418;2022-12-17T10:52:27;99597.55;;;-2.99;46.18
59154;BME280;44935;48.944;9.418;2022-12-17T10:54:56;99600.90;;;-1.62;44.34
59154;BME280;44935;48.944;9.418;2022-12-17T10:57:29;99600.87;;;-2.07;44.53
59154;BME280;44935;48.944;9.418;2022-12-17T10:59:58;99603.47;;;-4.30;49.16
59154;BME280;44935;48.944;9.418;2022-12-17T11:02:28;99599.43;;;-2.42;45.59
59154;BME280;44935;48.944;9.418;2022-12-17T11:04:57;99608.46;;;-4.11;48.69
59154;BME280;44935;48.944;9.418;2022-12-17T11:07:28;99606.97;;;-4.93;50.25
59154;BME280;44935;48.944;9.418;2022-12-17T11:09:59;99605.20;;;-2.73;45.35
59154;BME280;44935;48.944;9.418;2022-12-17T11:12:31;99605.77;;;-2.53;45.22
59154;BME280;44935;48.944;9.418;2022-12-17T11:15:06;99601.25;;;-2.91;46.08
59154;BME280;44935;48.944;9.418;2022-12-17T11:17:39;99602.58;;;-2.78;46.49
59154;BME280;44935;48.944;9.418;2022-12-17T11:20:19;99605.22;;;-3.53;46.39
59154;BME280;44935;48.944;9.418;2022-12-17T11:22:51;99605.63;;;-3.60;47.13
59154;BME280;44935;48.944;9.418;2022-12-17T11:25:32;99600.99;;;-3.34;47.36
59154;BME280;44935;48.944;9.418;2022-12-17T11:28:12;99599.88;;;-3.20;46.65
59154;BME280;44935;48.944;9.418;2022-12-17T11:30:47;99603.70;;;-3.51;47.78
59154;BME280;44935;48.944;9.418;2022-12-17T11:33:19;99608.61;;;-3.86;48.29
59154;BME280;44935;48.944;9.418;2022-12-17T11:35:53;99611.48;;;-3.70;48.44
59154;BME280;44935;48.944;9.418;2022-12-17T11:38:32;99609.46;;;-3.28;47.78
59154;BME280;44935;48.944;9.418;2022-12-17T11:41:06;99611.04;;;-3.69;48.84
59154;BME280;44935;48.944;9.418;2022-12-17T11:43:42;99611.71;;;-3.69;49.23
59154;BME280;44935;48.944;9.418;2022-12-17T11:46:23;99616.90;;;-3.58;49.38
59154;BME280;44935;48.944;9.418;2022-12-17T11:49:00;99619.32;;;-3.41;48.75
59154;BME280;44935;48.944;9.418;2022-12-17T11:51:34;99611.77;;;-3.04;47.53
59154;BME280;44935;48.944;9.418;2022-12-17T11:54:08;99614.81;;;-2.96;47.17
59154;BME280;44935;48.944;9.418;2022-12-17T11:56:41;99614.97;;;-2.12;46.13
59154;BME280;44935;48.944;9.418;2022-12-17T11:59:26;99615.90;;;-2.37;46.26
59154;BME280;44935;48.944;9.418;2022-12-17T12:02:01;99619.09;;;-1.71;45.10
59154;BME280;44935;48.944;9.418;2022-12-17T12:04:52;99617.18;;;-1.86;45.87
59154;BME280;44935;48.944;9.418;2022-12-17T12:07:30;99615.05;;;-2.01;45.30
59154;BME280;44935;48.944;9.418;2022-12-17T12:10:05;99616.49;;;-3.00;45.78
59154;BME280;44935;48.944;9.418;2022-12-17T12:12:45;99612.01;;;-1.17;43.08
59154;BME280;44935;48.944;9.418;2022-12-17T12:15:25;99613.29;;;-0.68;42.80
59154;BME280;44935;48.944;9.418;2022-12-17T12:18:00;99608.67;;;-1.40;42.93
59154;BME280;44935;48.944;9.418;2022-12-17T12:20:46;99608.73;;;-1.48;43.32
59154;BME280;44935;48.944;9.418;2022-12-17T12:23:22;99605.95;;;-1.17;43.91
59154;BME280;44935;48.944;9.418;2022-12-17T12:26:00;99598.19;;;-1.27;44.45
59154;BME280;44935;48.944;9.418;2022-12-17T12:28:39;99600.15;;;-1.85;43.73
59154;BME280;44935;48.944;9.418;2022-12-17T12:31:16;99598.33;;;-2.75;45.20
59154;BME280;44935;48.944;9.418;2022-12-17T12:33:51;99598.62;;;-2.37;46.20
59154;BME280;44935;48.944;9.418;2022-12-17T12:36:20;99594.74;;;-2.36;46.05
59154;BME280;44935;48.944;9.418;2022-12-17T12:38:53;99590.59;;;-2.99;46.31
59154;BME280;44935;48.944;9.418;2022-12-17T12:41:36;99593.51;;;-3.08;47.06
59154;BME280;44935;48.944;9.418;2022-12-17T12:44:17;99593.14;;;-3.45;48.16
59154;BME280;44935;48.944;9.418;2022-12-17T12:46:55;99592.29;;;-3.28;48.30
59154;BME280;44935;48.944;9.418;2022-12-17T12:49:32;99594.10;;;-2.63;47.37
59154;BME280;44935;48.944;9.418;2022-12-17T12:52:00;99593.88;;;-2.15;46.15
59154;BME280;44935;48.944;9.418;2022-12-17T12:54:29;99592.32;;;-2.23;45.95
59154;BME280;44935;48.944;9.418;2022-12-17T12:56:57;99593.05;;;-2.14;46.11
59154;BME280;44935;48.944;9.418;2022-12-17T12:59:26;99592.35;;;-2.30;45.89
59154;BME280;44935;48.944;9.418;2022-12-17T13:01:54;99595.08;;;-2.00;45.34
59154;BME280;44935;48.944;9.418;2022-12-17T13:04:30;99596.60;;;-1.74;45.24
59154;BME280;44935;48.944;9.418;2022-12-17T13:06:59;99596.60;;;-4.24;47.50
59154;BME280;44935;48.944;9.418;2022-12-17T13:09:37;99594.28;;;-1.58;44.77